sensor_id;sensor_type;location;lat;lon;timestamp;pressure;altitude;pressure_sealevel;temperature;humidity
9764;BME280;4921;43.214;27.936;2023-09-18T00:02:19;101562.19;;;22.14;100.00
9764;BME280;4921;43.214;27.936;2023-09-18T00:04:47;101559.19;;;22.09;100.00
9764;BME280;4921;43.214;27.936;2023-09-18T00:07:14;101563.41;;;22.04;100.00
9764;BME280;4921;43.214;27.936;2023-09-18T00:09:41;101555.50;;;22.02;100.00
9764;BME280;4921;43.214;27.936;2023-09-18T00:12:08;101550.00;;;22.04;100.00
9764;BME280;4921;43.214;27.936;2023-09-18T00:14:36;101546.28;;;22.05;100.00
9764;BME280;4921;43.214;27.936;2023-09-18T00:17:03;101533.59;;;21.98;100.00
9764;BME280;4921;43.214;27.936;2023-09-18T00:19:30;101541.13;;;22.03;100.00
9764;BME280;4921;43.214;27.936;2023-09-18T00:22:00;101542.78;;;22.04;99.98
9764;BME280;4921;43.214;27.936;2023-09-18T00:24:27;101537.41;;;22.04;99.62
9764;BME280;4921;43.214;27.936;2023-09-18T00:26:54;101544.13;;;22.08;99.31
9764;BME280;4921;43.214;27.936;2023-09-18T00:29:21;101541.91;;;22.12;98.45
9764;BME280;4921;43.214;27.936;2023-09-18T00:31:48;101541.59;;;22.15;97.54
9764;BME280;4921;43.214;27.936;2023-09-18T00:34:14;101543.44;;;22.14;96.40
9764;BME280;4921;43.214;27.936;2023-09-18T00:36:41;101543.44;;;22.14;95.59
9764;BME280;4921;43.214;27.936;2023-09-18T00:39:10;101544.94;;;22.17;94.55
9764;BME280;4921;43.214;27.936;2023-09-18T00:41:37;101538.53;;;22.18;93.06
9764;BME280;4921;43.214;27.936;2023-09-18T00:44:04;101538.34;;;22.19;92.29
9764;BME280;4921;43.214;27.936;2023-09-18T00:46:32;101543.72;;;22.19;91.87
9764;BME280;4921;43.214;27.936;2023-09-18T00:48:59;101537.16;;;22.22;90.38
9764;BME280;4921;43.214;27.936;2023-09-18T00:51:26;101544.41;;;22.21;90.24
9764;BME280;4921;43.214;27.936;2023-09-18T00:53:53;101540.88;;;22.21;89.25
9764;BME280;4921;43.214;27.936;2023-09-18T00:56:21;101538.34;;;22.19;89.28
9764;BME280;4921;43.214;27.936;2023-09-18T00:58:49;101542.53;;;22.22;88.73
9764;BME280;4921;43.214;27.936;2023-09-18T01:01:17;101525.78;;;22.20;88.30
9764;BME280;4921;43.214;27.936;2023-09-18T01:03:48;101532.66;;;22.22;87.66
9764;BME280;4921;43.214;27.936;2023-09-18T01:06:16;101534.16;;;22.25;87.42
9764;BME280;4921;43.214;27.936;2023-09-18T01:08:43;101525.78;;;22.20;87.38
9764;BME280;4921;43.214;27.936;2023-09-18T01:11:17;101524.63;;;22.22;87.58
9764;BME280;4921;43.214;27.936;2023-09-18T01:13:52;101522.78;;;22.23;86.61
9764;BME280;4921;43.214;27.936;2023-09-18T01:16:27;101525.63;;;22.21;86.40
9764;BME280;4921;43.214;27.936;2023-09-18T01:18:57;101516.91;;;22.19;86.66
9764;BME280;4921;43.214;27.936;2023-09-18T01:21:24;101515.25;;;22.18;86.76
9764;BME280;4921;43.214;27.936;2023-09-18T01:23:52;101512.06;;;22.23;85.65
9764;BME280;4921;43.214;27.936;2023-09-18T01:26:19;101518.59;;;22.20;86.15
9764;BME280;4921;43.214;27.936;2023-09-18T01:28:46;101513.25;;;22.20;85.97
9764;BME280;4921;43.214;27.936;2023-09-18T01:31:13;101515.59;;;22.15;86.67
9764;BME280;4921;43.214;27.936;2023-09-18T01:33:44;101514.78;;;22.15;86.15
9764;BME280;4921;43.214;27.936;2023-09-18T01:36:14;101518.81;;;22.11;87.15
9764;BME280;4921;43.214;27.936;2023-09-18T01:38:41;101515.47;;;22.09;87.54
9764;BME280;4921;43.214;27.936;2023-09-18T01:41:10;101515.47;;;22.09;87.96
9764;BME280;4921;43.214;27.936;2023-09-18T01:43:37;101523.69;;;22.07;88.23
9764;BME280;4921;43.214;27.936;2023-09-18T01:46:04;101522.03;;;22.06;88.42
9764;BME280;4921;43.214;27.936;2023-09-18T01:48:32;101522.84;;;22.07;87.56
9764;BME280;4921;43.214;27.936;2023-09-18T01:50:58;101521.34;;;22.04;87.74
9764;BME280;4921;43.214;27.936;2023-09-18T01:53:25;101528.72;;;22.02;87.86
9764;BME280;4921;43.214;27.936;2023-09-18T01:55:52;101518.53;;;21.97;87.74
9764;BME280;4921;43.214;27.936;2023-09-18T01:58:20;101525.41;;;21.92;89.15
9764;BME280;4921;43.214;27.936;2023-09-18T02:00:47;101526.59;;;21.89;88.96
9764;BME280;4921;43.214;27.936;2023-09-18T02:03:14;101519.72;;;21.87;89.16
9764;BME280;4921;43.214;27.936;2023-09-18T02:05:43;101521.94;;;21.83;89.99
9764;BME280;4921;43.214;27.936;2023-09-18T02:08:10;101512.56;;;21.79;90.37
9764;BME280;4921;43.214;27.936;2023-09-18T02:10:37;101514.19;;;21.80;89.94
9764;BME280;4921;43.214;27.936;2023-09-18T02:13:04;101518.56;;;21.81;89.78
9764;BME280;4921;43.214;27.936;2023-09-18T02:15:32;101520.25;;;21.82;89.14
9764;BME280;4921;43.214;27.936;2023-09-18T02:18:00;101519.41;;;21.82;89.31
9764;BME280;4921;43.214;27.936;2023-09-18T02:20:27;101515.41;;;21.78;89.23
9764;BME280;4921;43.214;27.936;2023-09-18T02:22:54;101518.25;;;21.76;89.05
9764;BME280;4921;43.214;27.936;2023-09-18T02:25:21;101521.28;;;21.73;89.34
9764;BME280;4921;43.214;27.936;2023-09-18T02:27:48;101518.59;;;21.73;90.20
9764;BME280;4921;43.214;27.936;2023-09-18T02:30:17;101522.78;;;21.76;89.70
9764;BME280;4921;43.214;27.936;2023-09-18T02:32:46;101520.25;;;21.74;89.62
9764;BME280;4921;43.214;27.936;2023-09-18T02:35:13;101517.75;;;21.73;89.82
9764;BME280;4921;43.214;27.936;2023-09-18T02:37:40;101508.25;;;21.62;89.74
9764;BME280;4921;43.214;27.936;2023-09-18T02:40:07;101518.44;;;21.67;89.81
9764;BME280;4921;43.214;27.936;2023-09-18T02:42:34;101517.78;;;21.65;90.32
9764;BME280;4921;43.214;27.936;2023-09-18T02:45:01;101526.50;;;21.67;90.23
9764;BME280;4921;43.214;27.936;2023-09-18T02:47:28;101523.16;;;21.65;89.77
9764;BME280;4921;43.214;27.936;2023-09-18T02:49:56;101534.38;;;21.60;90.04
9764;BME280;4921;43.214;27.936;2023-09-18T02:52:23;101525.31;;;21.61;90.10
9764;BME280;4921;43.214;27.936;2023-09-18T02:54:50;101523.66;;;21.60;90.77
9764;BME280;4921;43.214;27.936;2023-09-18T02:57:17;101525.16;;;21.63;91.03
9764;BME280;4921;43.214;27.936;2023-09-18T02:59:44;101522.63;;;21.61;91.28
9764;BME280;4921;43.214;27.936;2023-09-18T03:02:11;101527.00;;;21.62;91.47
9764;BME280;4921;43.214;27.936;2023-09-18T03:04:38;101514.59;;;21.61;92.14
9764;BME280;4921;43.214;27.936;2023-09-18T03:07:06;101519.28;;;21.59;92.66
9764;BME280;4921;43.214;27.936;2023-09-18T03:09:33;101525.81;;;21.57;93.53
9764;BME280;4921;43.214;27.936;2023-09-18T03:12:01;101516.81;;;21.58;94.31
9764;BME280;4921;43.214;27.936;2023-09-18T03:14:27;101528.84;;;21.54;94.67
9764;BME280;4921;43.214;27.936;2023-09-18T03:16:54;101531.34;;;21.55;94.69
9764;BME280;4921;43.214;27.936;2023-09-18T03:19:21;101525.81;;;21.57;94.94
9764;BME280;4921;43.214;27.936;2023-09-18T03:21:50;101521.31;;;21.57;95.87
9764;BME280;4921;43.214;27.936;2023-09-18T03:24:18;101522.81;;;21.60;96.02
9764;BME280;4921;43.214;27.936;2023-09-18T03:26:45;101531.69;;;21.60;95.59
9764;BME280;4921;43.214;27.936;2023-09-18T03:29:12;101527.84;;;21.63;96.11
9764;BME280;4921;43.214;27.936;2023-09-18T03:31:38;101528.50;;;21.65;95.56
9764;BME280;4921;43.214;27.936;2023-09-18T03:34:05;101520.47;;;21.65;95.70
9764;BME280;4921;43.214;27.936;2023-09-18T03:36:32;101524.50;;;21.61;96.02
9764;BME280;4921;43.214;27.936;2023-09-18T03:39:00;101517.13;;;21.63;96.54
9764;BME280;4921;43.214;27.936;2023-09-18T03:41:29;101520.47;;;21.65;96.25
9764;BME280;4921;43.214;27.936;2023-09-18T03:43:59;101524.31;;;21.62;96.60
9764;BME280;4921;43.214;27.936;2023-09-18T03:46:26;101519.16;;;21.61;96.92
9764;BME280;4921;43.214;27.936;2023-09-18T03:48:53;101522.47;;;21.63;97.37
9764;BME280;4921;43.214;27.936;2023-09-18T03:51:20;101519.97;;;21.61;97.68
9764;BME280;4921;43.214;27.936;2023-09-18T03:53:47;101521.81;;;21.61;97.04
9764;BME280;4921;43.214;27.936;2023-09-18T03:56:14;101524.13;;;21.64;96.99
9764;BME280;4921;43.214;27.936;2023-09-18T03:58:42;101521.28;;;21.65;96.13
9764;BME280;4921;43.214;27.936;2023-09-18T04:01:10;101525.66;;;21.66;96.91
9764;BME280;4921;43.214;27.936;2023-09-18T04:03:37;101521.66;;;21.62;96.75
9764;BME280;4921;43.214;27.936;2023-09-18T04:06:04;101525.50;;;21.60;95.88
9764;BME280;4921;43.214;27.936;2023-09-18T04:08:32;101537.38;;;21.57;95.63
9764;BME280;4921;43.214;27.936;2023-09-18T04:11:01;101532.72;;;21.51;96.05
9764;BME280;4921;43.214;27.936;2023-09-18T04:13:29;101534.75;;;21.41;97.28
9764;BME280;4921;43.214;27.936;2023-09-18T04:15:57;101539.25;;;21.41;97.04
9764;BME280;4921;43.214;27.936;2023-09-18T04:18:26;101540.25;;;21.32;97.15
9764;BME280;4921;43.214;27.936;2023-09-18T04:20:53;101538.75;;;21.29;97.87
9764;BME280;4921;43.214;27.936;2023-09-18T04:23:22;101544.31;;;21.19;99.20
9764;BME280;4921;43.214;27.936;2023-09-18T04:25:49;101547.97;;;21.18;100.00
9764;BME280;4921;43.214;27.936;2023-09-18T04:28:18;101543.13;;;21.14;100.00
9764;BME280;4921;43.214;27.936;2023-09-18T04:30:45;101546.63;;;21.14;100.00
9764;BME280;4921;43.214;27.936;2023-09-18T04:33:14;101544.63;;;21.08;100.00
9764;BME280;4921;43.214;27.936;2023-09-18T04:35:41;101552.13;;;21.05;100.00
9764;BME280;4921;43.214;27.936;2023-09-18T04:38:09;101555.13;;;21.02;100.00
9764;BME280;4921;43.214;27.936;2023-09-18T04:40:36;101559.47;;;20.95;100.00
9764;BME280;4921;43.214;27.936;2023-09-18T04:43:03;101561.19;;;21.04;100.00
9764;BME280;4921;43.214;27.936;2023-09-18T04:45:31;101548.94;;;21.01;100.00
9764;BME280;4921;43.214;27.936;2023-09-18T04:47:58;101549.78;;;21.02;100.00
9764;BME280;4921;43.214;27.936;2023-09-18T04:50:26;101553.66;;;21.07;100.00
9764;BME280;4921;43.214;27.936;2023-09-18T04:52:53;101550.81;;;21.09;100.00
9764;BME280;4921;43.214;27.936;2023-09-18T04:55:22;101555.16;;;21.10;100.00
9764;BME280;4921;43.214;27.936;2023-09-18T04:57:49;101549.31;;;21.14;100.00
9764;BME280;4921;43.214;27.936;2023-09-18T05:00:16;101560.00;;;21.22;100.00
9764;BME280;4921;43.214;27.936;2023-09-18T05:02:48;101555.50;;;21.23;100.00
9764;BME280;4921;43.214;27.936;2023-09-18T05:05:15;101553.47;;;21.25;100.00
9764;BME280;4921;43.214;27.936;2023-09-18T05:07:44;101548.28;;;21.32;100.00
9764;BME280;4921;43.214;27.936;2023-09-18T05:10:11;101551.63;;;21.34;100.00
9764;BME280;4921;43.214;27.936;2023-09-18T05:12:39;101547.97;;;21.35;100.00
9764;BME280;4921;43.214;27.936;2023-09-18T05:15:08;101548.13;;;21.41;100.00
9764;BME280;4921;43.214;27.936;2023-09-18T05:17:42;101548.28;;;21.48;100.00
9764;BME280;4921;43.214;27.936;2023-09-18T05:20:15;101546.91;;;21.60;100.00
9764;BME280;4921;43.214;27.936;2023-09-18T05:22:43;101540.34;;;21.70;100.00
9764;BME280;4921;43.214;27.936;2023-09-18T05:25:11;101539.84;;;21.83;100.00
9764;BME280;4921;43.214;27.936;2023-09-18T05:27:40;101543.03;;;21.86;100.00
9764;BME280;4921;43.214;27.936;2023-09-18T05:30:13;101549.19;;;21.95;100.00
9764;BME280;4921;43.214;27.936;2023-09-18T05:32:42;101545.44;;;22.04;100.00
9764;BME280;4921;43.214;27.936;2023-09-18T05:35:09;101538.59;;;22.10;100.00
9764;BME280;4921;43.214;27.936;2023-09-18T05:37:38;101540.03;;;22.20;100.00
9764;BME280;4921;43.214;27.936;2023-09-18T05:40:06;101528.34;;;22.13;100.00
9764;BME280;4921;43.214;27.936;2023-09-18T05:42:36;101546.50;;;22.34;100.00
9764;BME280;4921;43.214;27.936;2023-09-18T05:45:04;101540.50;;;22.32;100.00
9764;BME280;4921;43.214;27.936;2023-09-18T05:47:50;101538.53;;;22.48;100.00
9764;BME280;4921;43.214;27.936;2023-09-18T05:50:19;101547.72;;;22.54;100.00
9764;BME280;4921;43.214;27.936;2023-09-18T05:52:47;101544.19;;;22.61;100.00
9764;BME280;4921;43.214;27.936;2023-09-18T05:55:14;101539.97;;;22.67;100.00
9764;BME280;4921;43.214;27.936;2023-09-18T05:57:43;101551.84;;;22.72;97.61
9764;BME280;4921;43.214;27.936;2023-09-18T06:00:10;101540.19;;;22.80;95.31
9764;BME280;4921;43.214;27.936;2023-09-18T06:02:38;101542.00;;;22.88;93.85
9764;BME280;4921;43.214;27.936;2023-09-18T06:05:06;101543.78;;;22.95;93.53
9764;BME280;4921;43.214;27.936;2023-09-18T06:07:37;101552.97;;;23.01;94.04
9764;BME280;4921;43.214;27.936;2023-09-18T06:10:04;101545.03;;;23.07;90.89
9764;BME280;4921;43.214;27.936;2023-09-18T06:12:31;101552.72;;;23.10;88.62
9764;BME280;4921;43.214;27.936;2023-09-18T06:15:00;101543.59;;;23.19;87.42
9764;BME280;4921;43.214;27.936;2023-09-18T06:17:26;101543.88;;;23.24;85.23
9764;BME280;4921;43.214;27.936;2023-09-18T06:19:53;101549.00;;;23.34;84.05
9764;BME280;4921;43.214;27.936;2023-09-18T06:22:21;101561.69;;;23.40;83.40
9764;BME280;4921;43.214;27.936;2023-09-18T06:24:47;101556.63;;;23.45;82.47
9764;BME280;4921;43.214;27.936;2023-09-18T06:27:14;101552.84;;;23.54;83.11
9764;BME280;4921;43.214;27.936;2023-09-18T06:29:41;101564.53;;;23.61;83.34
9764;BME280;4921;43.214;27.936;2023-09-18T06:32:09;101565.28;;;23.70;85.01
9764;BME280;4921;43.214;27.936;2023-09-18T06:34:36;101557.31;;;23.76;82.84
9764;BME280;4921;43.214;27.936;2023-09-18T06:37:03;101562.78;;;23.83;81.33
9764;BME280;4921;43.214;27.936;2023-09-18T06:39:33;101565.94;;;23.86;79.41
9764;BME280;4921;43.214;27.936;2023-09-18T06:41:59;101560.84;;;23.91;79.33
9764;BME280;4921;43.214;27.936;2023-09-18T06:44:27;101555.81;;;24.03;78.06
9764;BME280;4921;43.214;27.936;2023-09-18T06:46:54;101568.41;;;24.02;77.66
9764;BME280;4921;43.214;27.936;2023-09-18T06:49:23;101563.16;;;24.09;76.25
9764;BME280;4921;43.214;27.936;2023-09-18T06:51:53;101562.44;;;24.15;77.88
9764;BME280;4921;43.214;27.936;2023-09-18T06:54:21;101562.31;;;24.23;80.75
9764;BME280;4921;43.214;27.936;2023-09-18T06:56:48;101561.66;;;24.36;81.13
9764;BME280;4921;43.214;27.936;2023-09-18T06:59:16;101564.47;;;24.13;69.91
9764;BME280;4921;43.214;27.936;2023-09-18T07:01:44;101554.53;;;24.13;70.82
9764;BME280;4921;43.214;27.936;2023-09-18T07:04:11;101563.06;;;24.32;69.35
9764;BME280;4921;43.214;27.936;2023-09-18T07:06:43;101561.59;;;24.50;69.83
9764;BME280;4921;43.214;27.936;2023-09-18T07:09:12;101567.13;;;24.63;67.86
9764;BME280;4921;43.214;27.936;2023-09-18T07:11:41;101567.06;;;24.57;65.35
9764;BME280;4921;43.214;27.936;2023-09-18T07:14:10;101563.78;;;24.76;65.89
9764;BME280;4921;43.214;27.936;2023-09-18T07:16:43;101564.16;;;24.73;63.23
9764;BME280;4921;43.214;27.936;2023-09-18T07:19:13;101559.94;;;24.85;65.22
9764;BME280;4921;43.214;27.936;2023-09-18T07:21:44;101567.13;;;24.78;59.11
9764;BME280;4921;43.214;27.936;2023-09-18T07:24:12;101569.22;;;24.82;57.63
9764;BME280;4921;43.214;27.936;2023-09-18T07:26:44;101566.38;;;24.84;57.31
9764;BME280;4921;43.214;27.936;2023-09-18T07:29:13;101565.78;;;24.74;57.85
9764;BME280;4921;43.214;27.936;2023-09-18T07:31:41;101567.78;;;24.80;57.46
9764;BME280;4921;43.214;27.936;2023-09-18T07:34:08;101565.34;;;24.85;59.36
9764;BME280;4921;43.214;27.936;2023-09-18T07:36:35;101555.91;;;24.74;56.75
9764;BME280;4921;43.214;27.936;2023-09-18T07:39:05;101569.38;;;24.95;58.73
9764;BME280;4921;43.214;27.936;2023-09-18T07:41:32;101558.09;;;25.07;59.37
9764;BME280;4921;43.214;27.936;2023-09-18T07:43:59;101571.94;;;25.04;56.59
9764;BME280;4921;43.214;27.936;2023-09-18T07:46:26;101565.84;;;25.16;56.86
9764;BME280;4921;43.214;27.936;2023-09-18T07:48:53;101572.69;;;24.97;54.35
9764;BME280;4921;43.214;27.936;2023-09-18T07:51:20;101573.03;;;25.09;55.19
9764;BME280;4921;43.214;27.936;2023-09-18T07:53:47;101568.19;;;25.26;55.41
9764;BME280;4921;43.214;27.936;2023-09-18T07:56:16;101570.19;;;25.17;57.25
9764;BME280;4921;43.214;27.936;2023-09-18T07:58:44;101566.34;;;25.26;57.01
9764;BME280;4921;43.214;27.936;2023-09-18T08:01:12;101582.28;;;25.28;55.76
9764;BME280;4921;43.214;27.936;2023-09-18T08:03:41;101569.19;;;25.18;56.62
9764;BME280;4921;43.214;27.936;2023-09-18T08:06:08;101580.59;;;25.20;58.65
9764;BME280;4921;43.214;27.936;2023-09-18T08:08:37;101579.19;;;25.03;58.93
9764;BME280;4921;43.214;27.936;2023-09-18T08:11:07;101578.41;;;25.09;61.19
9764;BME280;4921;43.214;27.936;2023-09-18T08:13:37;101573.78;;;25.24;62.35
9764;BME280;4921;43.214;27.936;2023-09-18T08:16:08;101582.81;;;25.38;62.45
9764;BME280;4921;43.214;27.936;2023-09-18T08:18:35;101585.13;;;25.20;62.55
9764;BME280;4921;43.214;27.936;2023-09-18T08:21:07;101579.81;;;25.26;63.66
9764;BME280;4921;43.214;27.936;2023-09-18T08:23:35;101578.00;;;25.33;65.01
9764;BME280;4921;43.214;27.936;2023-09-18T08:26:08;101578.72;;;25.21;62.13
9764;BME280;4921;43.214;27.936;2023-09-18T08:28:45;101590.78;;;25.25;57.91
9764;BME280;4921;43.214;27.936;2023-09-18T08:31:13;101575.56;;;25.17;57.17
9764;BME280;4921;43.214;27.936;2023-09-18T08:33:42;101572.28;;;25.43;57.42
9764;BME280;4921;43.214;27.936;2023-09-18T08:36:09;101584.03;;;25.35;59.62
9764;BME280;4921;43.214;27.936;2023-09-18T08:38:36;101559.34;;;25.11;62.05
9764;BME280;4921;43.214;27.936;2023-09-18T08:41:04;101577.47;;;25.23;63.96
9764;BME280;4921;43.214;27.936;2023-09-18T08:43:31;101553.28;;;25.02;63.73
9764;BME280;4921;43.214;27.936;2023-09-18T08:46:00;101573.56;;;25.26;62.25
9764;BME280;4921;43.214;27.936;2023-09-18T08:48:30;101571.41;;;25.36;61.68
9764;BME280;4921;43.214;27.936;2023-09-18T08:51:05;101566.66;;;25.38;62.57
9764;BME280;4921;43.214;27.936;2023-09-18T08:53:35;101565.81;;;25.37;63.13
9764;BME280;4921;43.214;27.936;2023-09-18T08:56:04;101569.53;;;25.36;65.13
9764;BME280;4921;43.214;27.936;2023-09-18T08:58:36;101566.66;;;25.38;66.32
9764;BME280;4921;43.214;27.936;2023-09-18T09:01:07;101564.09;;;25.51;66.26
9764;BME280;4921;43.214;27.936;2023-09-18T09:03:52;101573.00;;;25.30;66.06
9764;BME280;4921;43.214;27.936;2023-09-18T09:06:20;101569.81;;;25.20;64.09
9764;BME280;4921;43.214;27.936;2023-09-18T09:08:47;101569.63;;;25.01;64.75
9764;BME280;4921;43.214;27.936;2023-09-18T09:11:14;101583.09;;;24.79;66.54
9764;BME280;4921;43.214;27.936;2023-09-18T09:13:42;101565.16;;;24.86;66.26
9764;BME280;4921;43.214;27.936;2023-09-18T09:16:12;101565.97;;;25.08;66.68
9764;BME280;4921;43.214;27.936;2023-09-18T09:18:48;101572.38;;;25.07;63.61
9764;BME280;4921;43.214;27.936;2023-09-18T09:21:16;101575.63;;;25.24;63.63
9764;BME280;4921;43.214;27.936;2023-09-18T09:23:47;101572.06;;;25.17;62.71
9764;BME280;4921;43.214;27.936;2023-09-18T09:26:18;101573.22;;;25.08;62.34
9764;BME280;4921;43.214;27.936;2023-09-18T09:28:46;101571.34;;;25.29;61.09
9764;BME280;4921;43.214;27.936;2023-09-18T09:31:24;101571.53;;;25.49;61.84
9764;BME280;4921;43.214;27.936;2023-09-18T09:33:53;101570.44;;;25.43;62.77
9764;BME280;4921;43.214;27.936;2023-09-18T09:36:21;101573.91;;;25.37;63.87
9764;BME280;4921;43.214;27.936;2023-09-18T09:38:48;101583.22;;;25.14;62.13
9764;BME280;4921;43.214;27.936;2023-09-18T09:41:15;101590.31;;;25.00;61.24
9764;BME280;4921;43.214;27.936;2023-09-18T09:43:43;101591.94;;;24.94;62.04
9764;BME280;4921;43.214;27.936;2023-09-18T09:46:15;101584.72;;;24.95;63.91
9764;BME280;4921;43.214;27.936;2023-09-18T09:49:00;101585.41;;;25.04;66.29
9764;BME280;4921;43.214;27.936;2023-09-18T09:51:27;101582.09;;;25.02;66.84
9764;BME280;4921;43.214;27.936;2023-09-18T09:53:54;101577.13;;;25.05;67.06
9764;BME280;4921;43.214;27.936;2023-09-18T09:56:40;101577.69;;;25.22;68.08
9764;BME280;4921;43.214;27.936;2023-09-18T09:59:07;101568.91;;;25.13;63.98
9764;BME280;4921;43.214;27.936;2023-09-18T10:01:35;101574.78;;;25.23;62.74
9764;BME280;4921;43.214;27.936;2023-09-18T10:04:07;101570.81;;;25.19;62.11
9764;BME280;4921;43.214;27.936;2023-09-18T10:06:36;101562.53;;;25.14;60.28
9764;BME280;4921;43.214;27.936;2023-09-18T10:09:04;101569.75;;;25.14;58.68
9764;BME280;4921;43.214;27.936;2023-09-18T10:11:34;101575.72;;;25.09;58.31
9764;BME280;4921;43.214;27.936;2023-09-18T10:14:09;101564.34;;;25.35;56.91
9764;BME280;4921;43.214;27.936;2023-09-18T10:16:40;101571.00;;;25.39;53.97
9764;BME280;4921;43.214;27.936;2023-09-18T10:19:19;101562.56;;;25.42;51.41
9764;BME280;4921;43.214;27.936;2023-09-18T10:21:56;101571.47;;;25.21;52.94
9764;BME280;4921;43.214;27.936;2023-09-18T10:24:28;101577.31;;;25.25;54.11
9764;BME280;4921;43.214;27.936;2023-09-18T10:26:58;101560.56;;;25.50;54.01
9764;BME280;4921;43.214;27.936;2023-09-18T10:29:26;101569.63;;;25.70;51.53
9764;BME280;4921;43.214;27.936;2023-09-18T10:31:54;101563.88;;;25.52;51.57
9764;BME280;4921;43.214;27.936;2023-09-18T10:34:23;101565.16;;;25.56;51.82
9764;BME280;4921;43.214;27.936;2023-09-18T10:36:52;101561.84;;;25.33;52.43
9764;BME280;4921;43.214;27.936;2023-09-18T10:39:20;101556.69;;;25.38;52.57
9764;BME280;4921;43.214;27.936;2023-09-18T10:41:51;101555.44;;;25.55;51.82
9764;BME280;4921;43.214;27.936;2023-09-18T10:44:19;101560.50;;;25.71;51.31
9764;BME280;4921;43.214;27.936;2023-09-18T10:46:47;101554.56;;;25.83;51.99
9764;BME280;4921;43.214;27.936;2023-09-18T10:49:15;101549.63;;;25.93;51.58
9764;BME280;4921;43.214;27.936;2023-09-18T10:51:43;101552.28;;;25.86;51.96
9764;BME280;4921;43.214;27.936;2023-09-18T10:54:11;101533.63;;;25.85;52.88
9764;BME280;4921;43.214;27.936;2023-09-18T10:56:42;101552.25;;;25.80;55.05
9764;BME280;4921;43.214;27.936;2023-09-18T10:59:09;101539.31;;;25.68;56.69
9764;BME280;4921;43.214;27.936;2023-09-18T11:01:36;101531.41;;;26.01;57.12
9764;BME280;4921;43.214;27.936;2023-09-18T11:04:04;101539.09;;;26.04;56.35
9764;BME280;4921;43.214;27.936;2023-09-18T11:09:43;101539.63;;;26.21;55.33
9764;BME280;4921;43.214;27.936;2023-09-18T11:12:11;101527.63;;;26.30;55.71
9764;BME280;4921;43.214;27.936;2023-09-18T11:14:46;101534.69;;;26.37;55.10
9764;BME280;4921;43.214;27.936;2023-09-18T11:17:31;101537.91;;;26.61;51.66
9764;BME280;4921;43.214;27.936;2023-09-18T11:20:09;101539.31;;;26.43;52.06
9764;BME280;4921;43.214;27.936;2023-09-18T11:22:46;101530.00;;;26.66;53.33
9764;BME280;4921;43.214;27.936;2023-09-18T11:25:34;101534.03;;;26.76;53.28
9764;BME280;4921;43.214;27.936;2023-09-18T11:28:03;101538.84;;;26.33;54.42
9764;BME280;4921;43.214;27.936;2023-09-18T11:30:33;101520.28;;;26.11;56.38
9764;BME280;4921;43.214;27.936;2023-09-18T11:33:02;101537.22;;;26.45;56.18
9764;BME280;4921;43.214;27.936;2023-09-18T11:35:29;101529.13;;;26.45;53.09
9764;BME280;4921;43.214;27.936;2023-09-18T11:38:04;101529.88;;;26.80;53.43
9764;BME280;4921;43.214;27.936;2023-09-18T11:40:35;101529.03;;;26.86;51.20
9764;BME280;4921;43.214;27.936;2023-09-18T11:43:23;101523.34;;;26.55;54.76
9764;BME280;4921;43.214;27.936;2023-09-18T11:45:52;101528.66;;;26.35;57.52
9764;BME280;4921;43.214;27.936;2023-09-18T11:48:20;101519.31;;;26.25;56.79
9764;BME280;4921;43.214;27.936;2023-09-18T11:50:51;101520.44;;;26.03;56.43
9764;BME280;4921;43.214;27.936;2023-09-18T11:53:20;101520.97;;;25.85;59.16
9764;BME280;4921;43.214;27.936;2023-09-18T11:55:48;101518.50;;;25.90;60.22
9764;BME280;4921;43.214;27.936;2023-09-18T11:58:15;101510.84;;;25.94;59.36
9764;BME280;4921;43.214;27.936;2023-09-18T12:00:42;101516.81;;;25.83;59.62
9764;BME280;4921;43.214;27.936;2023-09-18T12:03:17;101519.38;;;25.97;60.36
9764;BME280;4921;43.214;27.936;2023-09-18T12:05:55;101507.16;;;26.08;58.16
9764;BME280;4921;43.214;27.936;2023-09-18T12:08:23;101513.00;;;26.05;59.05
9764;BME280;4921;43.214;27.936;2023-09-18T12:10:53;101503.34;;;25.83;58.87
9764;BME280;4921;43.214;27.936;2023-09-18T12:13:20;101514.81;;;25.98;59.00
9764;BME280;4921;43.214;27.936;2023-09-18T12:15:48;101514.75;;;25.85;60.47
9764;BME280;4921;43.214;27.936;2023-09-18T12:18:15;101520.72;;;25.80;58.35
9764;BME280;4921;43.214;27.936;2023-09-18T12:20:47;101508.31;;;25.79;59.92
9764;BME280;4921;43.214;27.936;2023-09-18T12:23:15;101518.53;;;25.97;60.23
9764;BME280;4921;43.214;27.936;2023-09-18T12:25:45;101515.75;;;25.84;57.07
9764;BME280;4921;43.214;27.936;2023-09-18T12:28:14;101515.22;;;25.60;58.14
9764;BME280;4921;43.214;27.936;2023-09-18T12:30:42;101517.91;;;25.95;59.13
9764;BME280;4921;43.214;27.936;2023-09-18T12:33:09;101515.31;;;25.73;58.12
9764;BME280;4921;43.214;27.936;2023-09-18T12:35:37;101516.50;;;25.37;59.03
9764;BME280;4921;43.214;27.936;2023-09-18T12:38:14;101520.84;;;25.38;58.46
9764;BME280;4921;43.214;27.936;2023-09-18T12:40:41;101508.69;;;25.42;58.69
9764;BME280;4921;43.214;27.936;2023-09-18T12:43:10;101499.47;;;25.36;58.14
9764;BME280;4921;43.214;27.936;2023-09-18T12:45:39;101509.88;;;25.39;58.25
9764;BME280;4921;43.214;27.936;2023-09-18T12:48:06;101504.44;;;25.33;55.07
9764;BME280;4921;43.214;27.936;2023-09-18T12:50:33;101499.56;;;25.43;56.30
9764;BME280;4921;43.214;27.936;2023-09-18T12:53:11;101492.03;;;25.38;57.44
9764;BME280;4921;43.214;27.936;2023-09-18T12:55:38;101492.03;;;25.38;53.95
9764;BME280;4921;43.214;27.936;2023-09-18T12:58:06;101508.19;;;25.32;52.55
9764;BME280;4921;43.214;27.936;2023-09-18T13:00:35;101492.16;;;25.24;55.95
9764;BME280;4921;43.214;27.936;2023-09-18T13:03:04;101500.72;;;25.06;54.61
9764;BME280;4921;43.214;27.936;2023-09-18T13:05:31;101501.75;;;25.05;55.82
9764;BME280;4921;43.214;27.936;2023-09-18T13:08:03;101498.50;;;24.88;57.39
9764;BME280;4921;43.214;27.936;2023-09-18T13:10:41;101492.69;;;25.13;57.50